Time;durP1;ratioP1;P1;durP2;ratioP2;P2;SDS_P1;SDS_P2;PMS_P1;PMS_P2;Temp;Humidity;BMP_temperature;BMP_pressure;BME280_temperature;BME280_humidity;BME280_pressure;Samples;Min_cycle;Max_cycle;Signal;HPM_P1;HPM_P2
2022/08/30 00:01:01;;;;;;;;;5.00;2.67;;;;;;;;4990797;27;45387;-74
2022/08/30 00:03:27;;;;;;;;;5.67;2.67;;;;;;;;4986777;28;45381;-74
2022/08/30 00:05:53;;;;;;;;;3.67;3.67;;;;;;;;4992376;27;45309;-74
2022/08/30 00:08:18;;;;;;;;;6.33;4.00;;;;;;;;4983516;27;45340;-74
2022/08/30 00:10:44;;;;;;;;;4.67;3.33;;;;;;;;4982021;28;45252;-73
2022/08/30 00:13:12;;;;;;;;;3.00;2.00;;;;;;;;4983151;27;45296;-74
2022/08/30 00:15:38;;;;;;;;;4.67;4.67;;;;;;;;4984932;28;45395;-74
2022/08/30 00:18:04;;;;;;;;;4.00;4.00;;;;;;;;4983176;28;45296;-74
2022/08/30 00:20:30;;;;;;;;;3.00;3.00;;;;;;;;4985906;27;45639;-74
2022/08/30 00:22:55;;;;;;;;;5.33;4.00;;;;;;;;4983098;27;45569;-74
2022/08/30 00:25:21;;;;;;;;;6.00;3.67;;;;;;;;4989434;28;45459;-74
2022/08/30 00:27:47;;;;;;;;;3.33;3.33;;;;;;;;4982071;27;45409;-74
2022/08/30 00:30:13;;;;;;;;;5.00;4.67;;;;;;;;4991885;28;45260;-74
2022/08/30 00:32:39;;;;;;;;;6.33;3.00;;;;;;;;4981476;28;45385;-74
2022/08/30 00:35:05;;;;;;;;;4.67;3.67;;;;;;;;5008807;27;45204;-74
2022/08/30 00:37:31;;;;;;;;;4.67;4.67;;;;;;;;4983354;27;45438;-74
2022/08/30 00:39:56;;;;;;;;;5.67;5.67;;;;;;;;4996637;27;45299;-74
2022/08/30 00:42:21;;;;;;;;;4.67;4.67;;;;;;;;4981560;27;45146;-74
2022/08/30 00:44:49;;;;;;;;;3.00;3.00;;;;;;;;4977132;28;45528;-74
2022/08/30 00:47:15;;;;;;;;;6.00;4.67;;;;;;;;4979892;27;45288;-74
2022/08/30 00:49:42;;;;;;;;;4.33;3.67;;;;;;;;4981038;27;45295;-74
2022/08/30 00:52:07;;;;;;;;;5.00;3.00;;;;;;;;4982744;27;45218;-74
2022/08/30 00:54:34;;;;;;;;;5.67;4.00;;;;;;;;4985744;28;45305;-74
2022/08/30 00:57:00;;;;;;;;;5.00;5.00;;;;;;;;4984808;27;45354;-74
2022/08/30 00:59:26;;;;;;;;;6.33;3.67;;;;;;;;4989023;27;45277;-74
2022/08/30 01:01:52;;;;;;;;;3.67;2.67;;;;;;;;4986763;28;45413;-74
2022/08/30 01:04:20;;;;;;;;;5.33;4.00;;;;;;;;4989816;28;46149;-74
2022/08/30 01:06:45;;;;;;;;;5.67;3.67;;;;;;;;4985421;27;45483;-74
2022/08/30 01:09:11;;;;;;;;;4.00;4.00;;;;;;;;4989160;28;45366;-74
2022/08/30 01:11:37;;;;;;;;;3.00;3.00;;;;;;;;4988980;28;45519;-74
2022/08/30 01:14:03;;;;;;;;;5.00;3.67;;;;;;;;4989860;27;45295;-74
2022/08/30 01:16:32;;;;;;;;;4.00;4.00;;;;;;;;4987824;28;45244;-74
2022/08/30 01:18:59;;;;;;;;;4.00;4.00;;;;;;;;4979847;27;45350;-74
2022/08/30 01:21:35;;;;;;;;;5.00;3.67;;;;;;;;4983787;28;45316;-74
2022/08/30 01:24:01;;;;;;;;;5.00;5.00;;;;;;;;4982036;28;45377;-74
2022/08/30 01:26:28;;;;;;;;;4.00;3.67;;;;;;;;4985260;27;46268;-74
2022/08/30 01:28:55;;;;;;;;;4.67;4.00;;;;;;;;4983087;28;45364;-74
2022/08/30 01:31:21;;;;;;;;;4.67;3.67;;;;;;;;4988118;27;45303;-74
2022/08/30 01:33:46;;;;;;;;;4.67;4.67;;;;;;;;4989443;27;45233;-74
2022/08/30 01:36:12;;;;;;;;;4.67;4.67;;;;;;;;4988879;28;45232;-74
2022/08/30 01:38:48;;;;;;;;;3.33;3.00;;;;;;;;4987465;28;45404;-74
2022/08/30 01:41:16;;;;;;;;;4.00;4.00;;;;;;;;4987422;28;45413;-74
2022/08/30 01:43:42;;;;;;;;;8.00;5.00;;;;;;;;4977108;28;45343;-75
2022/08/30 01:46:10;;;;;;;;;5.00;3.33;;;;;;;;4977445;27;45502;-74
2022/08/30 01:48:35;;;;;;;;;4.33;3.67;;;;;;;;4983658;27;45308;-74
2022/08/30 01:51:01;;;;;;;;;5.00;5.00;;;;;;;;4980872;27;45424;-74
2022/08/30 01:53:26;;;;;;;;;7.00;3.67;;;;;;;;4981281;27;45558;-74
2022/08/30 01:55:52;;;;;;;;;4.33;3.67;;;;;;;;4988136;28;45438;-74
2022/08/30 01:58:17;;;;;;;;;4.00;4.00;;;;;;;;4980366;28;45250;-74
2022/08/30 02:00:42;;;;;;;;;3.00;3.00;;;;;;;;4991716;27;45614;-74
2022/08/30 02:03:07;;;;;;;;;3.00;3.00;;;;;;;;4981587;28;45328;-74
2022/08/30 02:05:32;;;;;;;;;5.00;4.00;;;;;;;;4981006;28;45343;-74
2022/08/30 02:07:58;;;;;;;;;5.00;3.67;;;;;;;;4986696;28;45300;-74
2022/08/30 02:10:23;;;;;;;;;8.33;5.67;;;;;;;;4984255;28;45413;-74
2022/08/30 02:12:48;;;;;;;;;5.00;3.67;;;;;;;;4982806;27;45407;-73
2022/08/30 02:15:14;;;;;;;;;9.33;6.00;;;;;;;;4987709;28;45336;-73
2022/08/30 02:17:41;;;;;;;;;4.67;4.33;;;;;;;;4987467;27;45269;-73
2022/08/30 02:20:06;;;;;;;;;4.67;4.33;;;;;;;;4989264;28;45253;-73
2022/08/30 02:22:32;;;;;;;;;6.00;4.00;;;;;;;;4988208;27;45570;-74
2022/08/30 02:24:57;;;;;;;;;6.33;4.67;;;;;;;;4993190;27;45459;-74
2022/08/30 02:27:22;;;;;;;;;6.33;6.00;;;;;;;;4981347;28;45583;-75
2022/08/30 02:29:48;;;;;;;;;4.67;3.33;;;;;;;;4991339;27;45271;-74
2022/08/30 02:32:13;;;;;;;;;7.00;6.67;;;;;;;;4984021;28;45555;-76
2022/08/30 02:34:38;;;;;;;;;7.33;6.33;;;;;;;;5005348;27;46349;-78
2022/08/30 02:37:04;;;;;;;;;5.67;4.67;;;;;;;;4983676;28;45252;-78
2022/08/30 02:39:30;;;;;;;;;8.00;5.33;;;;;;;;4982360;28;45233;-76
2022/08/30 02:41:55;;;;;;;;;7.33;6.67;;;;;;;;4980486;27;45678;-76
2022/08/30 02:44:20;;;;;;;;;11.00;7.67;;;;;;;;4983091;27;46133;-76
2022/08/30 02:46:46;;;;;;;;;7.67;6.67;;;;;;;;4981744;27;45378;-76
2022/08/30 02:49:12;;;;;;;;;8.00;6.67;;;;;;;;4984862;27;45280;-76
2022/08/30 02:51:38;;;;;;;;;6.33;5.00;;;;;;;;4982644;28;45431;-77
2022/08/30 02:54:03;;;;;;;;;7.00;6.00;;;;;;;;4985882;28;46581;-76
2022/08/30 02:56:29;;;;;;;;;10.33;8.00;;;;;;;;4986322;27;45341;-77
2022/08/30 02:58:54;;;;;;;;;7.33;5.67;;;;;;;;4988082;27;45481;-78
2022/08/30 03:01:19;;;;;;;;;8.33;6.67;;;;;;;;4990533;27;46475;-77
2022/08/30 03:03:45;;;;;;;;;9.67;7.67;;;;;;;;4988511;27;45389;-77
2022/08/30 03:06:11;;;;;;;;;9.67;8.00;;;;;;;;4990994;27;45497;-79
2022/08/30 03:08:36;;;;;;;;;6.67;6.67;;;;;;;;4983445;27;45437;-76
2022/08/30 03:11:02;;;;;;;;;7.00;6.33;;;;;;;;4982354;27;45421;-76
2022/08/30 03:13:28;;;;;;;;;11.00;7.67;;;;;;;;4992050;27;46252;-76
2022/08/30 03:15:53;;;;;;;;;7.67;7.33;;;;;;;;4989221;28;45269;-76
2022/08/30 03:18:19;;;;;;;;;6.33;5.00;;;;;;;;4983556;28;45621;-76
2022/08/30 03:20:45;;;;;;;;;8.67;8.33;;;;;;;;4983508;27;45524;-77
2022/08/30 03:23:10;;;;;;;;;9.33;7.00;;;;;;;;4980876;27;45293;-77
2022/08/30 03:25:35;;;;;;;;;6.67;5.00;;;;;;;;4986066;27;45373;-78
2022/08/30 03:28:01;;;;;;;;;10.00;9.00;;;;;;;;4986100;27;45726;-77
2022/08/30 03:30:27;;;;;;;;;11.00;8.33;;;;;;;;4995714;27;46433;-78
2022/08/30 03:32:52;;;;;;;;;13.00;10.00;;;;;;;;4990474;27;45442;-77
2022/08/30 03:35:17;;;;;;;;;9.00;8.33;;;;;;;;5014042;27;45343;-76
2022/08/30 03:37:43;;;;;;;;;9.67;6.67;;;;;;;;4985779;27;45756;-76
2022/08/30 03:40:09;;;;;;;;;9.00;6.00;;;;;;;;4979920;28;45533;-76
2022/08/30 03:42:34;;;;;;;;;8.00;8.00;;;;;;;;4980672;28;46363;-76
2022/08/30 03:45:01;;;;;;;;;13.33;9.33;;;;;;;;4987366;27;45300;-76
2022/08/30 03:47:26;;;;;;;;;14.33;8.67;;;;;;;;4992505;28;45351;-77
2022/08/30 03:49:51;;;;;;;;;7.00;7.00;;;;;;;;4984002;27;45323;-77
2022/08/30 03:52:16;;;;;;;;;9.67;6.33;;;;;;;;4983752;28;48222;-76
2022/08/30 03:54:42;;;;;;;;;7.33;6.67;;;;;;;;4986186;27;45249;-77
2022/08/30 03:57:07;;;;;;;;;10.00;10.00;;;;;;;;4985715;28;48023;-77
2022/08/30 03:59:32;;;;;;;;;7.67;5.00;;;;;;;;4988292;28;45298;-77
2022/08/30 04:01:58;;;;;;;;;6.33;5.00;;;;;;;;4986557;27;45315;-77
2022/08/30 04:04:23;;;;;;;;;5.67;5.33;;;;;;;;4989565;27;45173;-77
2022/08/30 04:06:48;;;;;;;;;7.67;7.33;;;;;;;;4989243;28;46053;-77
2022/08/30 04:09:14;;;;;;;;;9.67;7.67;;;;;;;;4982240;28;45423;-77
2022/08/30 04:11:39;;;;;;;;;8.67;5.67;;;;;;;;4982841;27;45377;-77
2022/08/30 04:14:04;;;;;;;;;8.00;7.00;;;;;;;;4979740;28;45162;-77
2022/08/30 04:16:29;;;;;;;;;7.00;6.67;;;;;;;;4985179;27;45328;-77
2022/08/30 04:18:55;;;;;;;;;7.33;7.00;;;;;;;;4987212;27;45543;-77
2022/08/30 04:21:20;;;;;;;;;8.33;7.00;;;;;;;;4990451;28;45405;-78
2022/08/30 04:23:46;;;;;;;;;8.00;5.33;;;;;;;;4985854;28;45217;-77
2022/08/30 04:26:11;;;;;;;;;12.67;8.33;;;;;;;;4990352;27;45339;-77
2022/08/30 04:28:37;;;;;;;;;9.67;5.67;;;;;;;;4983837;28;45268;-77
2022/08/30 04:31:13;;;;;;;;;8.00;7.00;;;;;;;;4987186;28;45482;-78
2022/08/30 04:33:39;;;;;;;;;10.00;8.00;;;;;;;;4992615;27;45368;-77
2022/08/30 04:36:05;;;;;;;;;7.00;6.67;;;;;;;;5015117;27;45331;-77
2022/08/30 04:38:31;;;;;;;;;8.00;8.00;;;;;;;;4992402;27;46396;-76
2022/08/30 04:40:57;;;;;;;;;7.00;5.67;;;;;;;;4988049;27;46422;-77
2022/08/30 04:43:23;;;;;;;;;8.67;6.67;;;;;;;;4977615;27;45638;-77
2022/08/30 04:45:51;;;;;;;;;7.33;7.00;;;;;;;;4989830;28;45511;-77
2022/08/30 04:48:16;;;;;;;;;7.33;7.33;;;;;;;;4977578;28;45381;-77
2022/08/30 04:50:41;;;;;;;;;12.33;10.67;;;;;;;;4989460;27;45489;-77
2022/08/30 04:53:07;;;;;;;;;6.67;6.67;;;;;;;;4979969;28;45369;-77
2022/08/30 04:55:32;;;;;;;;;8.67;7.00;;;;;;;;4980712;28;45290;-76
2022/08/30 04:57:57;;;;;;;;;10.00;8.67;;;;;;;;4982047;27;45225;-78
2022/08/30 05:00:22;;;;;;;;;8.67;7.67;;;;;;;;4982893;28;45548;-77
2022/08/30 05:02:47;;;;;;;;;9.00;8.00;;;;;;;;4983236;27;45264;-78
2022/08/30 05:07:57;;;;;;;;;9.67;9.00;;;;;;;;4987227;27;45340;-79
2022/08/30 05:10:22;;;;;;;;;10.67;9.00;;;;;;;;4989264;27;45779;-78
2022/08/30 05:12:48;;;;;;;;;6.67;6.67;;;;;;;;4985801;28;45608;-77
2022/08/30 05:15:13;;;;;;;;;10.67;8.67;;;;;;;;4993164;27;45333;-78
2022/08/30 05:17:39;;;;;;;;;8.67;7.33;;;;;;;;4986613;27;45350;-78
2022/08/30 05:20:08;;;;;;;;;6.67;6.67;;;;;;;;4985527;28;45442;-77
2022/08/30 05:22:38;;;;;;;;;9.67;8.33;;;;;;;;4987093;28;45440;-78
2022/08/30 05:25:04;;;;;;;;;11.00;9.67;;;;;;;;4989007;28;46317;-78
2022/08/30 05:27:29;;;;;;;;;9.00;9.00;;;;;;;;4981878;28;45500;-78
2022/08/30 05:29:54;;;;;;;;;10.33;10.00;;;;;;;;4988967;28;47204;-78
2022/08/30 05:32:19;;;;;;;;;11.00;7.67;;;;;;;;4982365;27;45309;-77
2022/08/30 05:34:45;;;;;;;;;13.67;9.00;;;;;;;;5002396;27;45327;-79
2022/08/30 05:37:10;;;;;;;;;7.67;7.67;;;;;;;;4984864;28;45415;-78
2022/08/30 05:39:35;;;;;;;;;8.00;8.00;;;;;;;;4993618;27;45427;-78
2022/08/30 05:42:00;;;;;;;;;9.00;8.33;;;;;;;;4983029;27;45374;-78
2022/08/30 05:44:25;;;;;;;;;10.33;8.00;;;;;;;;4992139;27;45252;-78
2022/08/30 05:46:51;;;;;;;;;13.33;8.00;;;;;;;;4985853;27;45395;-78
2022/08/30 05:49:16;;;;;;;;;7.00;7.00;;;;;;;;4983139;28;45285;-78
2022/08/30 05:51:41;;;;;;;;;10.00;9.00;;;;;;;;4982084;27;45331;-79
2022/08/30 05:54:07;;;;;;;;;8.33;6.00;;;;;;;;4978044;27;45521;-77
2022/08/30 05:56:33;;;;;;;;;8.33;7.00;;;;;;;;4978593;27;45379;-77
2022/08/30 05:58:59;;;;;;;;;9.33;8.00;;;;;;;;4984585;28;47646;-78
2022/08/30 06:01:30;;;;;;;;;10.00;7.00;;;;;;;;4992575;28;45537;-77
2022/08/30 06:03:57;;;;;;;;;8.00;7.00;;;;;;;;4994428;28;45468;-77
2022/08/30 06:06:22;;;;;;;;;9.00;8.00;;;;;;;;4992859;28;47235;-78
2022/08/30 06:08:47;;;;;;;;;9.67;9.00;;;;;;;;4992797;28;45439;-78
2022/08/30 06:11:18;;;;;;;;;11.67;8.00;;;;;;;;4992459;27;45323;-78
2022/08/30 06:13:43;;;;;;;;;11.33;9.67;;;;;;;;4992957;28;45544;-79
2022/08/30 06:16:12;;;;;;;;;8.67;7.00;;;;;;;;4994736;27;45473;-79
2022/08/30 06:18:38;;;;;;;;;8.00;8.00;;;;;;;;4997169;28;46177;-77
2022/08/30 06:21:03;;;;;;;;;9.00;7.00;;;;;;;;4995265;28;45419;-79
2022/08/30 06:23:29;;;;;;;;;12.67;9.33;;;;;;;;4995210;27;45513;-79
2022/08/30 06:25:54;;;;;;;;;8.33;8.33;;;;;;;;4995496;28;45744;-79
2022/08/30 06:28:19;;;;;;;;;8.33;8.33;;;;;;;;4994796;28;46331;-79
2022/08/30 06:30:45;;;;;;;;;8.67;8.00;;;;;;;;4996387;27;45455;-79
2022/08/30 06:33:10;;;;;;;;;8.33;7.33;;;;;;;;4987600;27;45263;-79
2022/08/30 06:35:36;;;;;;;;;8.33;8.00;;;;;;;;5015511;27;46934;-79
2022/08/30 06:38:02;;;;;;;;;9.33;8.00;;;;;;;;4997406;27;45406;-78
2022/08/30 06:40:27;;;;;;;;;8.00;7.67;;;;;;;;4995054;27;45227;-78
2022/08/30 06:42:53;;;;;;;;;9.67;7.33;;;;;;;;4981060;28;45386;-78
2022/08/30 06:45:19;;;;;;;;;9.67;7.67;;;;;;;;4989774;27;45857;-79
2022/08/30 06:47:45;;;;;;;;;7.67;7.67;;;;;;;;4982396;27;46073;-80
2022/08/30 06:50:11;;;;;;;;;8.33;6.33;;;;;;;;4986435;27;45415;-79
2022/08/30 06:52:36;;;;;;;;;7.00;6.67;;;;;;;;4985150;27;45327;-79
2022/08/30 06:55:01;;;;;;;;;8.00;7.00;;;;;;;;4992526;27;45351;-79
2022/08/30 06:57:26;;;;;;;;;7.00;6.33;;;;;;;;4988169;28;46095;-79
2022/08/30 06:59:55;;;;;;;;;9.67;9.00;;;;;;;;4990451;28;45340;-80
2022/08/30 07:02:21;;;;;;;;;13.00;8.33;;;;;;;;4986692;27;45371;-79
2022/08/30 07:04:47;;;;;;;;;12.00;6.67;;;;;;;;4979816;27;45143;-77
2022/08/30 07:07:12;;;;;;;;;8.33;7.67;;;;;;;;4986646;27;45310;-80
2022/08/30 07:09:42;;;;;;;;;9.00;9.00;;;;;;;;4986931;28;45256;-78
2022/08/30 07:12:07;;;;;;;;;14.67;8.67;;;;;;;;4991209;27;45345;-78
2022/08/30 07:14:32;;;;;;;;;10.67;9.00;;;;;;;;4987887;28;47034;-78
2022/08/30 07:16:57;;;;;;;;;7.00;7.00;;;;;;;;4983044;28;45477;-78
2022/08/30 07:19:23;;;;;;;;;7.33;6.33;;;;;;;;4995793;27;45397;-80
2022/08/30 07:21:49;;;;;;;;;11.00;7.67;;;;;;;;4988647;27;45574;-80
2022/08/30 07:24:14;;;;;;;;;9.00;7.00;;;;;;;;4980557;28;45246;-80
2022/08/30 07:26:41;;;;;;;;;10.33;8.00;;;;;;;;4983315;27;45252;-81
2022/08/30 07:29:07;;;;;;;;;8.67;7.33;;;;;;;;4988601;27;45223;-81
2022/08/30 07:31:34;;;;;;;;;7.67;7.67;;;;;;;;4990305;27;45509;-82
2022/08/30 07:34:00;;;;;;;;;9.00;9.00;;;;;;;;5008225;27;45325;-81
2022/08/30 07:36:25;;;;;;;;;10.67;8.00;;;;;;;;4989870;27;46068;-80
2022/08/30 07:38:51;;;;;;;;;10.33;10.33;;;;;;;;4978704;28;45371;-78
2022/08/30 07:41:18;;;;;;;;;9.00;9.00;;;;;;;;4980538;28;45437;-77
2022/08/30 07:43:43;;;;;;;;;8.00;7.67;;;;;;;;4979197;27;45441;-78
2022/08/30 07:46:09;;;;;;;;;10.67;9.67;;;;;;;;4981037;27;45432;-77
2022/08/30 07:48:34;;;;;;;;;8.33;5.67;;;;;;;;4980490;28;45323;-80
2022/08/30 07:51:00;;;;;;;;;6.33;6.33;;;;;;;;4984919;28;45273;-79
2022/08/30 07:53:25;;;;;;;;;8.33;7.00;;;;;;;;4984056;27;45600;-80
2022/08/30 07:55:50;;;;;;;;;9.67;8.00;;;;;;;;4984032;27;45938;-79
2022/08/30 07:58:15;;;;;;;;;6.50;6.50;;;;;;;;4990980;27;45632;-80
2022/08/30 08:00:41;;;;;;;;;7.00;5.67;;;;;;;;4994852;28;45267;-78
2022/08/30 08:03:07;;;;;;;;;8.67;7.33;;;;;;;;4995659;28;46763;-78
2022/08/30 08:05:40;;;;;;;;;10.00;8.00;;;;;;;;4994539;28;45264;-78
2022/08/30 08:08:06;;;;;;;;;8.67;7.00;;;;;;;;4992282;28;45414;-78
2022/08/30 08:10:31;;;;;;;;;9.33;9.00;;;;;;;;4994831;28;45383;-78
2022/08/30 08:12:56;;;;;;;;;12.00;11.00;;;;;;;;4992382;28;45379;-78
2022/08/30 08:15:22;;;;;;;;;11.00;8.00;;;;;;;;4995869;28;46229;-79
2022/08/30 08:17:47;;;;;;;;;7.00;5.67;;;;;;;;4983527;28;45309;-79
2022/08/30 08:20:12;;;;;;;;;13.00;8.67;;;;;;;;4987976;28;45451;-79
2022/08/30 08:22:37;;;;;;;;;9.00;7.00;;;;;;;;4981764;28;45516;-80
2022/08/30 08:25:03;;;;;;;;;10.33;7.33;;;;;;;;4989170;27;46568;-81
2022/08/30 08:27:28;;;;;;;;;8.33;8.33;;;;;;;;4987831;27;45479;-79
2022/08/30 08:29:53;;;;;;;;;9.67;6.67;;;;;;;;4991936;27;45418;-79
2022/08/30 08:32:18;;;;;;;;;13.33;9.67;;;;;;;;4984273;27;45484;-79
2022/08/30 08:34:43;;;;;;;;;9.00;6.33;;;;;;;;4997259;27;46527;-79
2022/08/30 08:37:09;;;;;;;;;6.00;6.00;;;;;;;;4985784;28;45632;-78
2022/08/30 08:39:34;;;;;;;;;7.33;7.33;;;;;;;;4981968;28;45313;-79
2022/08/30 08:42:19;;;;;;;;;8.67;8.67;;;;;;;;4993251;28;47276;-78
2022/08/30 08:44:53;;;;;;;;;8.33;7.33;;;;;;;;4992604;27;47726;-78
2022/08/30 08:47:32;;;;;;;;;6.00;3.33;;;;;;;;4985869;27;45587;-77
2022/08/30 08:50:00;;;;;;;;;9.67;7.33;;;;;;;;4984793;28;45255;-77
2022/08/30 08:55:20;;;;;;;;;8.00;7.33;;;;;;;;5047845;27;45302;-77
2022/08/30 08:57:46;;;;;;;;;10.67;10.33;;;;;;;;4980494;27;45417;-79
2022/08/30 09:00:13;;;;;;;;;7.00;7.00;;;;;;;;4990188;28;45483;-78
2022/08/30 09:02:40;;;;;;;;;15.67;12.00;;;;;;;;4986396;28;45611;-77
2022/08/30 09:05:07;;;;;;;;;9.67;8.67;;;;;;;;4990392;27;45355;-77
2022/08/30 09:07:35;;;;;;;;;12.33;8.00;;;;;;;;4988297;27;45388;-77
2022/08/30 09:10:01;;;;;;;;;7.33;7.00;;;;;;;;4979100;28;45466;-76
2022/08/30 09:12:26;;;;;;;;;10.00;8.33;;;;;;;;4983126;27;45272;-75
2022/08/30 09:14:53;;;;;;;;;8.67;7.00;;;;;;;;4980753;28;45434;-77
2022/08/30 09:17:19;;;;;;;;;8.00;7.75;;;;;;;;4986033;28;45378;-77
2022/08/30 09:19:44;;;;;;;;;8.75;8.75;;;;;;;;4982980;28;45494;-77
2022/08/30 09:22:16;;;;;;;;;9.33;7.67;;;;;;;;4988651;27;45472;-77
2022/08/30 09:24:45;;;;;;;;;8.75;8.00;;;;;;;;4992514;27;45959;-77
2022/08/30 09:27:16;;;;;;;;;10.00;8.25;;;;;;;;4990714;27;45365;-77
2022/08/30 09:29:52;;;;;;;;;6.00;6.00;;;;;;;;4994533;28;45162;-77
2022/08/30 09:32:38;;;;;;;;;8.67;8.67;;;;;;;;4990770;28;45468;-77
2022/08/30 09:35:04;;;;;;;;;8.25;8.00;;;;;;;;5006392;27;46014;-77
2022/08/30 09:37:31;;;;;;;;;7.50;7.50;;;;;;;;4986153;28;45551;-77
2022/08/30 09:39:57;;;;;;;;;8.25;8.00;;;;;;;;4994551;28;45420;-77
2022/08/30 09:42:24;;;;;;;;;7.00;7.00;;;;;;;;4986782;27;45510;-77
2022/08/30 09:44:50;;;;;;;;;6.50;6.00;;;;;;;;4994528;28;45331;-76
2022/08/30 09:47:36;;;;;;;;;9.00;7.25;;;;;;;;4988395;28;45182;-77
2022/08/30 09:50:04;;;;;;;;;10.75;9.75;;;;;;;;4983020;27;45413;-76
2022/08/30 09:52:32;;;;;;;;;9.75;6.25;;;;;;;;4994209;28;45449;-73
2022/08/30 09:55:16;;;;;;;;;9.50;9.00;;;;;;;;4989621;27;45485;-75
2022/08/30 09:57:51;;;;;;;;;12.25;8.25;;;;;;;;4985307;27;45323;-76
2022/08/30 10:00:20;;;;;;;;;6.75;5.50;;;;;;;;4991480;27;45296;-76
2022/08/30 10:02:58;;;;;;;;;9.00;6.50;;;;;;;;4990680;27;45548;-75
2022/08/30 10:05:31;;;;;;;;;7.75;7.75;;;;;;;;4994514;27;46269;-78
2022/08/30 10:08:19;;;;;;;;;13.75;9.25;;;;;;;;4987393;27;45368;-76
2022/08/30 10:10:52;;;;;;;;;9.00;6.75;;;;;;;;4992858;27;45538;-76
2022/08/30 10:13:21;;;;;;;;;9.00;7.50;;;;;;;;4986337;27;45518;-76
2022/08/30 10:15:56;;;;;;;;;7.50;7.50;;;;;;;;4996964;27;46132;-76
2022/08/30 10:18:29;;;;;;;;;10.00;7.50;;;;;;;;4988009;27;45244;-76
2022/08/30 10:20:54;;;;;;;;;6.75;6.50;;;;;;;;4982414;28;45478;-76
2022/08/30 10:23:32;;;;;;;;;9.00;9.00;;;;;;;;4982145;28;45371;-76
2022/08/30 10:26:06;;;;;;;;;10.00;8.00;;;;;;;;4984209;27;46282;-76
2022/08/30 10:28:39;;;;;;;;;7.75;7.75;;;;;;;;4983912;27;45339;-76
2022/08/30 10:31:08;;;;;;;;;9.50;7.75;;;;;;;;4988510;27;45469;-76
2022/08/30 10:33:36;;;;;;;;;7.75;6.50;;;;;;;;4996136;27;46217;-76
2022/08/30 10:36:04;;;;;;;;;8.00;8.00;;;;;;;;4990601;27;45342;-76
2022/08/30 10:38:32;;;;;;;;;9.00;8.00;;;;;;;;4981365;27;45426;-76
2022/08/30 10:41:20;;;;;;;;;7.00;7.00;;;;;;;;4991071;28;45369;-77
2022/08/30 10:43:53;;;;;;;;;9.50;7.25;;;;;;;;4979668;28;45487;-76
2022/08/30 10:46:37;;;;;;;;;9.50;7.00;;;;;;;;4991431;28;46299;-76
2022/08/30 10:49:04;;;;;;;;;9.20;8.00;;;;;;;;4994700;28;46170;-78
2022/08/30 10:51:31;;;;;;;;;6.00;6.00;;;;;;;;4984812;27;45416;-77
2022/08/30 10:54:02;;;;;;;;;10.00;8.25;;;;;;;;4985737;27;45409;-77
2022/08/30 10:56:28;;;;;;;;;9.00;7.25;;;;;;;;4985271;28;47161;-77
2022/08/30 10:58:55;;;;;;;;;8.50;7.00;;;;;;;;4987206;28;45402;-77
2022/08/30 11:01:20;;;;;;;;;7.75;7.75;;;;;;;;4989637;27;45543;-76
2022/08/30 11:03:51;;;;;;;;;9.75;6.75;;;;;;;;4988156;27;45399;-77
2022/08/30 11:06:26;;;;;;;;;8.00;8.00;;;;;;;;4987212;27;47076;-76
2022/08/30 11:08:54;;;;;;;;;8.25;6.75;;;;;;;;4995646;27;45398;-76
2022/08/30 11:11:20;;;;;;;;;7.00;6.00;;;;;;;;4993423;28;45250;-76
2022/08/30 11:13:46;;;;;;;;;6.50;6.50;;;;;;;;4988386;27;46137;-76
2022/08/30 11:16:17;;;;;;;;;7.50;6.50;;;;;;;;4985314;27;45567;-76
2022/08/30 11:18:55;;;;;;;;;9.00;7.00;;;;;;;;4987673;28;45280;-76
2022/08/30 11:21:20;;;;;;;;;10.50;8.75;;;;;;;;4992978;28;45314;-76
2022/08/30 11:23:57;;;;;;;;;13.75;9.00;;;;;;;;4982539;28;45183;-76
2022/08/30 11:26:41;;;;;;;;;12.00;7.75;;;;;;;;4986611;28;46305;-76
2022/08/30 11:29:07;;;;;;;;;8.75;8.00;;;;;;;;4984129;27;45250;-76
2022/08/30 11:31:36;;;;;;;;;9.00;6.75;;;;;;;;4989587;28;45247;-76
2022/08/30 11:34:02;;;;;;;;;7.75;7.75;;;;;;;;5007670;27;45908;-76
2022/08/30 11:36:27;;;;;;;;;6.50;6.50;;;;;;;;4994069;27;46554;-75
2022/08/30 11:38:52;;;;;;;;;8.75;7.00;;;;;;;;4982338;27;45356;-76
2022/08/30 11:41:29;;;;;;;;;7.25;7.25;;;;;;;;4997096;27;45429;-76
2022/08/30 11:44:10;;;;;;;;;7.00;7.00;;;;;;;;4986664;27;45515;-76
2022/08/30 11:46:36;;;;;;;;;8.25;8.25;;;;;;;;4984539;28;45448;-75
2022/08/30 11:49:21;;;;;;;;;10.00;10.00;;;;;;;;4994253;28;45424;-75
2022/08/30 11:51:59;;;;;;;;;8.00;8.00;;;;;;;;4985232;27;45395;-75
2022/08/30 11:54:24;;;;;;;;;7.00;6.25;;;;;;;;4982517;27;45545;-74
2022/08/30 11:57:12;;;;;;;;;7.50;7.50;;;;;;;;4979236;28;45392;-75
2022/08/30 11:59:56;;;;;;;;;8.60;8.00;;;;;;;;4982461;27;45361;-75
2022/08/30 12:02:40;;;;;;;;;6.50;6.50;;;;;;;;4986416;28;45351;-75
2022/08/30 12:05:05;;;;;;;;;7.00;7.00;;;;;;;;4985228;28;46044;-75
2022/08/30 12:07:49;;;;;;;;;10.75;9.50;;;;;;;;4987997;28;46177;-75
2022/08/30 12:10:20;;;;;;;;;6.50;6.50;;;;;;;;4990607;27;45481;-75
2022/08/30 12:12:47;;;;;;;;;9.25;7.75;;;;;;;;4991341;27;45461;-75
2022/08/30 12:15:27;;;;;;;;;8.25;8.25;;;;;;;;4996655;28;46771;-75
2022/08/30 12:20:46;;;;;;;;;10.00;7.20;;;;;;;;4994447;28;45519;-74
2022/08/30 12:23:23;;;;;;;;;6.75;6.75;;;;;;;;4991785;28;45242;-74
2022/08/30 12:25:49;;;;;;;;;7.25;7.25;;;;;;;;4994202;27;45325;-74
2022/08/30 12:28:27;;;;;;;;;4.75;4.75;;;;;;;;4991589;28;46119;-75
2022/08/30 12:30:52;;;;;;;;;10.20;7.80;;;;;;;;4994253;28;45465;-75
2022/08/30 12:33:31;;;;;;;;;7.75;7.75;;;;;;;;4993519;28;45440;-76
2022/08/30 12:35:58;;;;;;;;;9.00;8.00;;;;;;;;4992746;27;45367;-75
2022/08/30 12:38:23;;;;;;;;;8.50;6.25;;;;;;;;4982181;28;45909;-75
2022/08/30 12:40:49;;;;;;;;;10.75;8.75;;;;;;;;4989611;27;45216;-75
2022/08/30 12:43:22;;;;;;;;;9.75;8.75;;;;;;;;4978547;27;45511;-75
2022/08/30 12:45:49;;;;;;;;;8.50;6.50;;;;;;;;4980532;27;45556;-75
2022/08/30 12:48:16;;;;;;;;;8.25;8.25;;;;;;;;4979153;28;47176;-76
2022/08/30 12:50:52;;;;;;;;;5.20;5.20;;;;;;;;4982138;28;45315;-75
2022/08/30 12:53:28;;;;;;;;;8.50;8.25;;;;;;;;4990253;27;45608;-76
2022/08/30 12:56:00;;;;;;;;;10.25;8.50;;;;;;;;4991973;27;47059;-75
2022/08/30 12:58:34;;;;;;;;;8.75;6.25;;;;;;;;4984858;28;46330;-75
2022/08/30 13:01:18;;;;;;;;;10.00;7.20;;;;;;;;4976935;27;45561;-75
2022/08/30 13:03:52;;;;;;;;;9.75;8.25;;;;;;;;4989062;27;45625;-75
2022/08/30 13:06:34;;;;;;;;;10.00;7.25;;;;;;;;4982945;27;45567;-75
2022/08/30 13:08:59;;;;;;;;;9.00;8.00;;;;;;;;4993182;27;45246;-75
2022/08/30 13:11:25;;;;;;;;;8.75;7.50;;;;;;;;4987856;27;45393;-74
2022/08/30 13:13:54;;;;;;;;;6.75;6.75;;;;;;;;4995608;28;45377;-74
2022/08/30 13:16:23;;;;;;;;;8.75;7.50;;;;;;;;4990576;28;45687;-74
2022/08/30 13:19:09;;;;;;;;;8.75;8.75;;;;;;;;4994394;28;45417;-74
2022/08/30 13:21:34;;;;;;;;;7.40;7.40;;;;;;;;4984020;28;45561;-75
2022/08/30 13:24:01;;;;;;;;;8.75;7.00;;;;;;;;4986372;28;45168;-74
2022/08/30 13:26:28;;;;;;;;;7.50;7.25;;;;;;;;4988201;27;47145;-75
2022/08/30 13:28:57;;;;;;;;;7.80;7.80;;;;;;;;4977905;28;45487;-76
2022/08/30 13:31:23;;;;;;;;;9.00;7.80;;;;;;;;4983209;28;45304;-75
2022/08/30 13:33:51;;;;;;;;;7.60;6.40;;;;;;;;4992377;27;45300;-76
2022/08/30 13:36:17;;;;;;;;;6.60;6.60;;;;;;;;4995929;27;47125;-75
2022/08/30 13:38:42;;;;;;;;;7.25;7.00;;;;;;;;4992388;28;45294;-75
2022/08/30 13:41:08;;;;;;;;;7.00;6.25;;;;;;;;4985998;27;45374;-75
2022/08/30 13:43:33;;;;;;;;;8.00;8.00;;;;;;;;4979153;28;45283;-75
2022/08/30 13:45:58;;;;;;;;;11.00;10.00;;;;;;;;4989487;27;45490;-75
2022/08/30 13:48:24;;;;;;;;;6.50;6.50;;;;;;;;4979612;28;45266;-75
2022/08/30 13:50:49;;;;;;;;;10.25;8.75;;;;;;;;4982068;28;45224;-75
2022/08/30 13:53:14;;;;;;;;;5.25;5.25;;;;;;;;4984487;27;45275;-75
2022/08/30 13:55:41;;;;;;;;;6.25;6.25;;;;;;;;4986172;28;45405;-75
2022/08/30 13:58:06;;;;;;;;;7.20;7.20;;;;;;;;4982123;27;45306;-75
2022/08/30 14:00:32;;;;;;;;;6.75;6.75;;;;;;;;4986013;28;45667;-75
2022/08/30 14:02:58;;;;;;;;;8.80;8.40;;;;;;;;4983847;27;45485;-75
2022/08/30 14:05:29;;;;;;;;;10.75;9.00;;;;;;;;4988269;28;45300;-75
2022/08/30 14:07:54;;;;;;;;;9.00;7.20;;;;;;;;4985384;28;45951;-75
2022/08/30 14:10:20;;;;;;;;;8.25;8.25;;;;;;;;4993177;28;45490;-75
2022/08/30 14:12:46;;;;;;;;;7.60;7.40;;;;;;;;4988401;28;45633;-74
2022/08/30 14:15:11;;;;;;;;;7.25;7.00;;;;;;;;4976819;28;45376;-75
2022/08/30 14:17:36;;;;;;;;;7.50;7.50;;;;;;;;4977963;28;46098;-74
2022/08/30 14:20:01;;;;;;;;;8.50;8.00;;;;;;;;4985847;27;45453;-75
2022/08/30 14:22:27;;;;;;;;;7.00;7.00;;;;;;;;4991293;28;45253;-74
2022/08/30 14:24:53;;;;;;;;;8.00;6.50;;;;;;;;4994086;27;47409;-74
2022/08/30 14:27:18;;;;;;;;;10.50;9.00;;;;;;;;4988214;27;47755;-74
2022/08/30 14:29:43;;;;;;;;;7.75;6.25;;;;;;;;4992139;28;45257;-75
2022/08/30 14:32:09;;;;;;;;;7.25;6.00;;;;;;;;4981835;28;45437;-74
2022/08/30 14:34:34;;;;;;;;;6.50;6.50;;;;;;;;5014460;27;45299;-75
2022/08/30 14:36:59;;;;;;;;;9.00;7.00;;;;;;;;4985510;27;45513;-75
2022/08/30 14:39:25;;;;;;;;;5.75;5.75;;;;;;;;4985561;27;45379;-75
2022/08/30 14:41:51;;;;;;;;;6.25;6.00;;;;;;;;4984805;27;45388;-75
2022/08/30 14:44:17;;;;;;;;;6.80;5.00;;;;;;;;4983280;27;45234;-74
2022/08/30 14:46:42;;;;;;;;;9.75;7.25;;;;;;;;4987877;27;45646;-75
2022/08/30 14:49:08;;;;;;;;;10.25;9.00;;;;;;;;4984369;27;45203;-75
2022/08/30 14:51:33;;;;;;;;;7.50;7.50;;;;;;;;4989519;27;45300;-74